Estación municipal de Susqueda - Veïnat del Coll (La Selva, )

Consulta los datos en tiempo real de la estación municipal de Susqueda - Veïnat del Coll





Hora UTC 19:25
Temperatura 10.7 ºC
Humedad 63.7 %
Presión 1019.7 hPa
Pluja 0.0 mm
Velocidad viento 13.5 km/h
Dirección viento S
Radiación solar 0.1 W/m²

Datos diarios 2026-05-02



Hora UTC (invierno +1h; verano +2h)
Temperatura (ºC) Humedad (%) Presión (hPa) Velocidad viento (km/h) Precipitación (mm) Radiación solar (W/m²)
Hora UTC Aire Humedad Presión Vel. Dir. Vel. Max Dir. Intent. máx 5 min. Rad. Sol.
00:05 9.8 94.1 1023.9 6.2 SSE 6.2 SSE 0.0 0.1
00:10 9.8 94.2 1023.9 5.1 S 12.7 SE 0.0 0.1
00:15 9.7 93.7 1023.8 2.4 SW 5.3 SSW 0.0 0.1
00:20 9.6 93.7 1023.8 4.2 SSW 14.1 S 0.0 0.1
00:25 9.8 94.1 1023.7 5.5 S 13.8 SE 0.0 0.1
00:30 9.8 92.9 1023.7 2.7 SW 12.0 S 0.0 0.1
00:35 9.8 91.9 1023.6 2.4 SW 6.4 S 0.0 0.1
00:40 9.9 92.4 1023.6 4.8 S 10.2 S 0.0 0.1
00:45 10.0 92.7 1023.5 2.3 SW 7.4 ESE 0.0 0.1
00:50 10.0 92.4 1023.5 1.7 SSW 6.4 SW 0.0 0.1
00:55 10.0 92.5 1023.5 3.1 SSW 7.4 S 0.0 0.1
01:00 9.9 93.1 1023.5 6.4 S 11.3 SSW 0.0 0.1
01:05 9.8 93.4 1023.5 6.4 SSW 11.6 S 0.0 0.1
01:10 9.8 94.0 1023.5 8.4 S 14.8 S 0.0 0.1
01:15 10.1 94.1 1023.4 7.2 S 12.4 S 0.0 0.1
01:20 10.2 93.7 1023.4 7.0 SSW 10.9 S 0.0 0.1
01:25 10.2 93.4 1023.3 6.4 SSW 11.3 S 0.0 0.1
01:30 10.3 93.7 1023.3 6.0 S 12.7 SW 0.0 0.1
01:35 10.4 93.7 1023.3 2.8 SSE 10.2 SSE 0.0 0.1
01:40 10.3 93.3 1023.3 2.9 S 11.6 S 0.0 0.1
01:45 10.4 93.7 1023.2 5.0 SSW 14.5 SSW 0.0 0.1
01:50 10.4 94.0 1023.2 5.4 S 13.8 SSW 0.0 0.1
01:55 10.3 93.8 1023.2 3.7 SSW 8.5 SE 0.0 0.1
02:00 10.3 93.8 1023.2 4.7 SSW 12.0 SSW 0.0 0.1
02:05 10.2 94.3 1023.0 4.2 S 9.2 SSW 0.0 0.1
02:10 10.2 94.7 1023.0 2.9 S 7.8 S 0.0 0.1
02:15 10.2 94.9 1022.9 1.5 SE 4.6 SSE 0.0 0.1
02:20 10.2 94.9 1022.9 1.2 E 3.9 ESE 0.0 0.1
02:25 10.2 95.0 1022.9 0.7 ENE 3.2 NE 0.0 0.1
02:30 10.1 95.1 1022.9 1.4 SE 3.9 ESE 0.0 0.1
02:35 10.1 95.3 1022.9 1.8 SSE 5.3 SSE 0.0 0.1
02:40 10.1 95.7 1022.9 4.5 SE 9.2 ESE 0.0 0.1
02:45 10.2 96.1 1022.9 5.5 SE 11.6 ESE 0.0 0.1
02:50 10.1 96.4 1022.9 5.8 SE 11.6 SE 0.0 0.1
02:55 10.1 96.6 1022.9 4.8 SE 10.9 SE 0.0 0.1
03:00 10.1 96.9 1022.9 3.9 ESE 9.2 ESE 0.0 0.1
03:05 10.2 97.1 1022.9 2.0 SE 7.8 SE 0.0 0.1
03:10 10.2 97.2 1022.9 3.3 SE 8.8 ESE 0.0 0.1
03:15 10.2 97.3 1022.8 2.9 ESE 6.4 SSE 0.0 0.1
03:20 10.2 97.4 1022.8 0.9 SSE 3.5 S 0.0 0.1
03:25 10.2 97.5 1022.8 0.6 ENE 4.2 E 0.0 0.1
03:30 10.2 97.6 1022.8 0.3 SE 2.5 SSE 0.0 0.1
03:35 10.1 97.5 1022.7 1.8 ESE 5.3 SSE 0.0 0.1
03:40 10.1 97.6 1022.7 1.9 SE 4.6 S 0.0 0.1
03:45 10.1 97.7 1022.7 3.5 SE 6.4 ESE 0.0 0.1
03:50 10.1 97.7 1022.7 2.3 ESE 6.7 ESE 0.0 0.1
03:55 10.1 97.9 1022.6 3.5 SE 7.8 SSE 0.0 0.1
04:00 10.0 97.9 1022.6 2.1 S 5.6 SSW 0.0 0.1
04:05 10.0 98.0 1022.6 3.1 S 5.6 S 0.0 0.1
04:10 10.0 98.1 1022.6 0.8 ESE 3.9 S 0.0 0.1
04:15 10.0 98.1 1022.6 2.0 SE 4.9 SE 0.0 0.1
04:20 10.0 98.1 1022.6 2.5 SE 5.6 SE 0.0 0.1
04:25 10.0 98.1 1022.6 5.1 SE 14.5 SE 0.0 0.2
04:30 9.9 98.1 1022.6 3.1 SSE 6.0 S 0.0 0.5
04:35 9.9 98.2 1022.5 4.6 SSE 9.9 SE 0.0 0.6
04:40 9.8 98.3 1022.5 5.2 SE 9.5 SE 0.0 1.1
04:45 9.8 98.4 1022.5 5.6 SE 11.3 ESE 0.0 1.1
04:50 9.8 98.4 1022.5 3.1 SSE 7.4 SE 0.0 1.6
04:55 9.8 98.5 1022.5 5.1 SE 12.4 SE 0.0 2.4
05:00 9.8 98.5 1022.5 7.0 SSE 12.7 SE 0.0 5.8
05:05 9.7 98.5 1022.6 7.4 SSE 15.2 SSE 0.0 10.6
05:10 9.7 98.6 1022.6 8.1 SSE 14.1 SE 0.0 10.2
05:15 9.7 98.6 1022.6 6.5 SSE 12.0 SE 0.0 11.6
05:20 9.7 98.6 1022.6 7.5 SSE 14.1 SE 0.0 17.2
05:25 9.7 98.5 1022.6 7.7 SSE 13.8 SSE 0.0 14.8
05:30 9.8 98.5 1022.6 7.1 SSE 12.7 S 0.0 19.1
05:35 9.9 98.3 1022.6 6.6 SE 12.4 SE 0.0 20.9
05:40 10.0 97.9 1022.6 6.9 SE 13.1 ESE 0.0 30.0
05:45 10.0 96.8 1022.6 7.3 SSE 14.8 SE 0.0 49.8
05:50 10.2 94.9 1022.6 7.8 SSE 19.1 SE 0.0 82.2
05:55 10.3 91.4 1022.6 9.0 SE 15.9 SE 0.0 123.7
06:00 10.5 90.3 1022.6 6.9 SE 12.0 SE 0.0 153.3
06:05 10.5 89.1 1022.7 6.3 S 12.4 SSE 0.0 171.1
06:10 10.4 89.7 1022.7 5.6 S 12.7 SSE 0.0 152.5
06:15 10.4 89.0 1022.9 7.9 S 12.4 S 0.0 102.7
06:20 10.0 85.1 1022.9 8.3 S 13.8 S 0.0 48.4
06:25 9.7 84.2 1022.9 10.2 S 17.3 S 0.0 34.8
06:30 9.6 87.6 1022.9 8.0 S 13.4 S 0.0 34.1
06:35 9.9 91.9 1022.9 7.4 SSE 13.4 SE 0.0 32.7
06:40 9.9 91.0 1022.9 7.2 SSE 11.6 SSE 0.0 41.1
06:45 9.8 90.7 1023.0 6.1 SSE 10.9 S 0.0 55.9
06:50 9.9 90.7 1023.0 6.0 SSE 10.6 SE 0.0 68.4
06:55 9.9 90.5 1023.0 6.4 SSE 12.0 SE 0.0 84.9
07:00 10.0 91.0 1023.0 6.0 SSE 12.0 SSE 0.0 84.9
07:05 10.1 90.6 1022.9 6.5 SSE 9.9 SE 0.0 94.7
07:10 10.2 90.8 1022.9 5.6 S 10.2 S 0.0 91.2
07:15 10.3 89.8 1023.0 4.2 SSE 10.2 SE 0.0 99.7
07:20 10.3 88.9 1023.0 5.0 S 8.8 S 0.0 111.2
07:25 10.2 86.6 1023.0 3.5 SE 8.5 S 0.0 103.5
07:30 10.2 84.7 1023.0 4.4 SE 9.9 SE 0.0 95.9
07:35 10.2 83.6 1023.0 3.8 S 11.6 SSE 0.0 137.4
07:40 10.2 82.4 1023.0 4.7 SSE 12.7 SSE 0.0 162.1
07:45 10.3 80.7 1023.0 4.4 S 10.2 SW 0.0 186.8
07:50 10.5 80.5 1023.0 4.5 SE 12.4 ESE 0.0 232.8
07:55 10.7 78.5 1023.0 4.8 SE 10.6 SE 0.0 218.5
08:00 10.7 77.4 1023.0 6.2 SE 12.0 SE 0.0 178.8
08:05 10.7 76.6 1023.0 6.8 SE 15.9 SE 0.0 170.2
08:10 10.6 74.3 1023.0 9.0 SE 16.9 SE 0.0 164.5
08:15 10.5 74.1 1023.0 7.1 SE 21.5 S 0.0 200.1
08:20 10.7 72.8 1023.0 6.9 SE 15.9 S 0.0 236.6
08:25 10.9 71.1 1023.0 5.6 SSE 12.0 S 0.0 226.2
08:30 10.9 68.6 1023.0 7.8 SE 15.9 ESE 0.0 193.5
08:35 10.7 66.9 1023.0 6.5 SE 14.1 SSE 0.0 132.6
08:40 10.6 67.5 1023.0 5.5 SE 11.3 ESE 0.0 122.9
08:45 10.5 66.9 1023.0 6.8 SE 15.2 SE 0.0 167.7
08:50 10.5 67.4 1023.0 6.7 ESE 14.5 ESE 0.0 157.3
08:55 10.6 68.1 1023.1 4.0 SSE 11.6 SSE 0.0 122.2
09:00 10.5 68.3 1023.1 4.8 SSE 9.5 SE 0.0 91.4
09:05 10.4 68.1 1023.1 4.4 SSE 12.4 SSW 0.0 90.7
09:10 10.4 70.2 1023.1 4.5 S 12.4 SSE 0.0 78.9
09:15 10.3 72.3 1023.1 3.9 SSE 17.6 SE 0.0 74.6
09:20 10.3 70.6 1023.1 5.5 S 12.4 S 0.0 126.1
09:25 10.4 69.7 1023.1 4.3 SE 13.8 ESE 0.0 154.9
09:30 10.6 72.6 1023.1 1.8 S 6.7 S 0.0 107.2
09:35 10.6 73.5 1023.2 2.9 SE 6.7 S 0.0 97.9
09:40 10.7 70.7 1023.2 2.0 SE 8.1 SE 0.0 176.5
09:45 10.9 69.2 1023.2 3.4 ESE 8.8 ESE 0.0 223.0
09:50 11.1 67.8 1023.2 4.8 E 11.3 E 0.0 264.7
09:55 11.1 66.4 1023.1 5.3 E 16.6 SE 0.0 248.3
10:00 11.3 67.0 1023.1 5.1 E 11.3 SE 0.0 209.3
10:05 11.2 66.4 1023.1 5.9 ESE 11.6 E 0.0 163.5
10:10 11.1 66.2 1023.1 6.4 ESE 13.1 SE 0.0 197.3
10:15 11.2 67.3 1022.9 4.1 SE 10.6 SE 0.0 273.8
10:20 11.5 66.3 1022.9 4.2 E 9.2 SE 0.0 306.2
10:25 11.7 66.0 1022.9 4.7 ESE 9.9 S 0.0 282.3
10:30 11.9 65.2 1022.9 4.3 SE 9.5 SE 0.0 273.0
10:35 12.0 65.8 1022.9 4.8 ESE 9.9 ESE 0.0 324.9
10:40 12.1 65.3 1022.9 3.8 ESE 10.6 SE 0.0 355.3
10:45 12.3 64.4 1022.9 7.0 ESE 13.8 SE 0.0 383.6
10:50 12.4 63.5 1022.9 6.4 ESE 14.5 SE 0.0 384.8
10:55 12.2 61.6 1022.9 5.3 ESE 14.5 SE 0.0 271.6
11:00 12.0 59.8 1022.9 9.2 ESE 16.6 SE 0.0 256.3
11:05 11.9 59.9 1022.8 4.9 SSE 13.8 SE 0.0 296.2
11:10 11.9 60.9 1022.8 6.9 E 16.6 ENE 0.0 373.9
11:15 12.1 61.5 1022.7 7.7 SE 15.9 SE 0.0 353.2
11:20 12.3 62.2 1022.7 8.6 ESE 18.7 SE 0.0 416.5
11:25 12.5 62.8 1022.6 4.9 ESE 12.4 ESE 0.0 501.9
11:30 12.9 61.4 1022.6 8.9 SE 19.4 ESE 0.0 540.0
11:35 13.3 63.1 1022.4 5.4 ESE 18.4 ENE 0.0 518.4
11:40 13.4 61.9 1022.4 6.3 SE 15.5 SE 0.0 489.0
11:45 13.6 62.4 1022.3 5.1 SE 13.4 E 0.0 503.0
11:50 13.6 63.4 1022.3 4.6 E 10.6 SSE 0.0 490.3
11:55 13.8 63.4 1022.2 6.5 ESE 20.5 ESE 0.0 520.7
12:00 13.7 64.0 1022.2 5.2 ESE 13.4 SE 0.0 545.9
12:05 14.1 63.4 1022.2 5.8 ESE 15.2 SE 0.0 681.0
12:10 14.4 62.5 1022.2 7.3 ESE 19.4 SE 0.0 773.7
12:15 14.4 63.5 1022.2 7.9 ESE 19.8 E 0.0 707.6
12:20 14.2 64.8 1022.2 8.0 ESE 20.1 E 0.0 639.1
12:25 14.4 64.7 1022.0 8.3 ESE 21.2 E 0.0 864.0
12:30 14.9 63.4 1022.0 7.6 ESE 19.4 ENE 0.0 881.0
12:35 15.1 61.5 1021.9 7.4 ESE 17.3 SSE 0.0 919.0
12:40 15.2 59.7 1021.9 8.5 ESE 16.6 ESE 0.0 571.8
12:45 14.9 61.3 1022.0 7.2 SE 12.7 SE 0.0 1041.0
12:50 15.8 59.4 1022.0 8.1 ESE 23.6 E 0.0 1076.0
12:55 15.8 57.4 1021.8 7.0 ESE 18.4 E 0.0 1035.0
13:00 15.8 57.0 1021.8 9.3 SE 18.0 ESE 0.0 1032.0
13:05 15.7 56.0 1021.9 10.5 SE 20.1 SE 0.0 752.8
13:10 14.9 57.1 1021.9 7.1 SSE 15.2 SSE 0.0 564.3
13:15 14.7 58.1 1021.9 8.1 SSE 16.9 SSE 0.0 420.5
13:20 14.6 58.1 1021.9 9.8 SE 17.3 S 0.0 464.5
13:25 14.6 57.3 1021.8 10.5 ESE 22.9 SE 0.0 495.6
13:30 14.5 58.2 1021.8 7.8 SE 15.9 SE 0.0 432.3
13:35 14.7 58.1 1021.6 7.1 SE 21.2 S 0.0 822.0
13:40 14.9 56.9 1021.6 8.2 SE 19.8 SE 0.0 816.0
13:45 15.6 57.0 1021.6 6.4 ESE 13.8 SE 0.0 992.0
13:50 15.9 53.0 1021.6 7.9 SE 25.4 SE 0.0 921.0
13:55 15.8 54.6 1021.5 7.6 ESE 20.8 E 0.0 626.6
14:00 15.3 55.1 1021.5 9.9 SE 19.1 ESE 0.0 470.4
14:05 14.7 57.2 1021.4 8.2 SSE 16.6 SE 0.0 362.2
14:10 14.2 61.3 1021.4 10.1 SE 21.2 E 0.0 350.4
14:15 14.0 63.1 1021.3 11.7 SE 22.2 SE 0.0 437.9
14:20 14.1 62.7 1021.3 10.6 SE 22.6 SE 0.0 366.3
14:25 13.7 62.8 1021.2 13.0 SE 24.0 SE 0.0 224.1
14:30 13.5 65.1 1021.2 7.8 SE 18.0 SE 0.0 186.3
14:35 13.6 66.2 1021.1 7.3 SE 16.6 SE 0.0 329.2
14:40 13.9 66.3 1021.1 6.1 SSE 15.5 SE 0.0 406.5
14:45 13.9 66.3 1020.9 10.3 SE 21.2 SE 0.0 441.5
14:50 13.7 69.2 1020.9 10.0 SE 22.6 ESE 0.0 417.1
14:55 13.6 71.1 1020.9 10.9 SSE 18.4 SE 0.0 359.8
15:00 13.4 72.9 1020.9 13.1 SE 20.8 SE 0.0 414.6
15:05 13.5 72.0 1020.8 9.0 SE 22.9 SE 0.0 309.9
15:10 13.2 73.5 1020.8 11.2 SE 24.0 SSE 0.0 161.4
15:15 12.9 73.2 1020.9 11.1 SSE 18.7 SSE 0.0 116.2
15:20 12.7 73.1 1020.9 7.2 SSE 16.6 ESE 0.0 188.0
15:25 12.8 72.8 1020.8 7.5 SSE 14.5 SE 0.0 256.9
15:30 12.9 71.5 1020.8 8.7 SE 19.1 SE 0.0 288.7
15:35 13.0 70.4 1020.6 7.3 SE 18.0 SE 0.0 256.6
15:40 13.0 68.3 1020.6 11.8 SE 21.9 ESE 0.0 228.6
15:45 12.8 66.5 1020.5 7.8 ESE 16.9 SE 0.0 346.1
15:50 13.0 63.7 1020.5 10.0 SE 18.0 SE 0.0 379.5
15:55 12.9 62.2 1020.3 11.3 SE 22.6 SSE 0.0 264.7
16:00 12.9 63.6 1020.3 8.4 SE 19.1 SE 0.0 215.7
16:05 12.8 63.9 1020.3 10.3 SE 20.5 ESE 0.0 172.4
16:10 12.7 63.9 1020.3 7.8 SE 18.4 SE 0.0 227.2
16:15 12.8 64.5 1020.3 10.7 SE 19.4 SE 0.0 196.4
16:20 12.6 66.8 1020.3 12.6 SE 22.9 SE 0.0 163.8
16:25 12.5 68.1 1020.3 9.9 SE 16.9 ESE 0.0 129.0
16:30 12.4 69.2 1020.3 9.9 SE 20.1 SE 0.0 108.8
16:35 12.4 69.1 1020.3 9.0 SE 16.2 ESE 0.0 102.6
16:40 12.3 68.7 1020.3 9.1 SSE 15.9 SSE 0.0 92.8
16:45 12.3 66.2 1020.3 8.0 SE 12.0 SE 0.0 96.4
16:50 12.3 68.2 1020.3 7.9 SE 16.9 ESE 0.0 82.3
16:55 12.1 64.1 1020.3 6.6 SSE 15.5 ESE 0.0 63.4
17:00 12.0 63.8 1020.3 8.5 SSE 16.9 S 0.0 55.5
17:05 11.9 65.4 1020.2 8.7 SSE 13.1 SSE 0.0 78.7
17:10 11.9 66.7 1020.2 6.7 SE 13.8 SE 0.0 93.3
17:15 11.8 68.1 1019.9 6.4 SSE 15.9 SSE 0.0 110.3
17:20 11.8 69.8 1019.9 9.0 SSE 15.2 SSE 0.0 107.7
17:25 11.8 71.1 1019.7 7.9 S 15.2 SSE 0.0 108.0
17:30 11.7 73.7 1019.7 8.2 SSE 13.8 S 0.0 107.2
17:35 11.6 75.9 1019.6 7.8 S 16.2 S 0.0 105.3
17:40 11.5 76.5 1019.6 9.3 S 15.9 S 0.0 99.6
17:45 11.4 72.7 1019.5 7.9 S 14.5 S 0.0 96.7
17:50 11.5 66.9 1019.5 6.6 S 13.8 SSW 0.0 89.3
17:55 11.7 64.2 1019.4 7.4 S 11.6 S 0.0 72.7
18:00 11.5 71.7 1019.4 6.5 S 12.0 S 0.0 47.1
18:05 11.3 77.3 1019.4 7.0 S 11.6 SSW 0.0 34.7
18:10 11.1 80.0 1019.4 5.3 S 10.2 S 0.0 32.4
18:15 10.9 79.8 1019.3 5.2 SSE 14.5 S 0.0 29.4
18:20 10.7 79.9 1019.3 5.2 SSE 13.4 SE 0.0 23.8
18:25 10.6 79.8 1019.3 6.6 SSE 13.4 ESE 0.0 14.5
18:30 10.4 73.8 1019.3 7.7 S 14.5 SSE 0.0 6.9
18:35 10.5 66.2 1019.2 7.9 SSE 14.5 SSE 0.0 4.0
18:40 10.4 70.9 1019.2 7.7 SSE 14.1 SSE 0.0 2.3
18:45 10.3 71.2 1019.3 8.9 SSE 14.1 S 0.0 1.4
18:50 10.2 69.4 1019.3 9.7 SSE 15.9 SSE 0.0 0.5
18:55 10.1 66.4 1019.4 11.2 S 20.1 S 0.0 0.2
19:00 10.3 62.1 1019.4 13.5 S 22.2 SSE 0.0 0.2
19:05 10.5 58.5 1019.5 14.4 S 22.9 SSE 0.0 0.1
19:10 10.8 57.9 1019.5 15.1 S 24.7 SSE 0.0 0.1
19:15 10.8 59.1 1019.7 12.7 SSE 21.2 SE 0.0 0.1
19:20 10.8 60.8 1019.7 13.8 SSE 26.1 SSE 0.0 0.1
19:25 10.7 63.7 1019.7 13.5 S 26.1 SSE 0.0 0.1
Máxima 15.9 98.6 1023.9 15.1 S 26.1 SSE 0.0 1076.0
Mínima 9.6 53.0 1019.2
Total 0.0